createdAt,value
2022-08-10T00:02:18.820Z,99.90
2022-08-10T00:04:46.018Z,99.90
2022-08-10T00:07:13.183Z,99.90
2022-08-10T00:09:50.724Z,99.90
2022-08-10T00:12:19.939Z,99.90
2022-08-10T00:14:47.257Z,99.90
2022-08-10T00:17:14.372Z,99.90
2022-08-10T00:20:03.851Z,99.90
2022-08-10T00:22:28.893Z,99.90
2022-08-10T00:24:58.278Z,99.90
2022-08-10T00:28:01.817Z,99.90
2022-08-10T00:30:13.558Z,99.90
2022-08-10T00:32:40.776Z,99.90
2022-08-10T00:35:08.127Z,99.90
2022-08-10T00:37:35.377Z,99.90
2022-08-10T00:40:03.157Z,99.90
2022-08-10T00:42:30.389Z,99.90
2022-08-10T00:44:57.606Z,99.90
2022-08-10T00:47:36.964Z,99.90
2022-08-10T00:50:09.052Z,99.90
2022-08-10T00:52:38.801Z,99.90
2022-08-10T00:55:06.201Z,99.90
2022-08-10T00:57:34.481Z,99.90
2022-08-10T01:00:01.717Z,99.90
2022-08-10T01:02:29.778Z,99.90
2022-08-10T01:05:00.935Z,99.90
2022-08-10T01:07:49.529Z,99.90
2022-08-10T01:10:25.196Z,99.90
2022-08-10T01:12:55.436Z,99.90
2022-08-10T01:15:34.820Z,99.90
2022-08-10T01:18:20.385Z,99.90
2022-08-10T01:20:57.733Z,99.90
2022-08-10T01:23:30.935Z,99.90
2022-08-10T01:26:30.782Z,99.90
2022-08-10T01:29:17.574Z,99.90
2022-08-10T01:31:46.923Z,99.90
2022-08-10T01:34:18.158Z,99.90
2022-08-10T01:36:48.239Z,99.90
2022-08-10T01:39:18.521Z,99.90
2022-08-10T01:41:47.340Z,99.90
2022-08-10T01:44:20.454Z,99.90
2022-08-10T01:46:56.905Z,99.90
2022-08-10T01:49:25.204Z,99.90
2022-08-10T01:51:56.758Z,99.90
2022-08-10T01:54:29.174Z,99.90
2022-08-10T01:56:57.385Z,99.90
2022-08-10T01:59:30.409Z,99.90
2022-08-10T02:02:00.671Z,99.90
2022-08-10T02:04:29.556Z,99.90
2022-08-10T02:06:57.976Z,99.90
2022-08-10T02:09:31.080Z,99.90
2022-08-10T02:12:07.583Z,99.90
2022-08-10T02:14:37.514Z,99.90
2022-08-10T02:17:06.717Z,99.90
2022-08-10T02:19:36.107Z,99.90
2022-08-10T02:22:37.815Z,99.90
2022-08-10T02:24:51.248Z,99.90
2022-08-10T02:27:19.239Z,99.90
2022-08-10T02:29:49.022Z,99.90
2022-08-10T02:32:23.793Z,99.90
2022-08-10T02:35:06.762Z,99.90
2022-08-10T02:37:34.782Z,99.90
2022-08-10T02:40:02.001Z,99.90
2022-08-10T02:45:27.818Z,99.90
2022-08-10T02:45:45.798Z,99.90
2022-08-10T02:48:16.802Z,99.90
2022-08-10T02:50:45.648Z,99.90
2022-08-10T02:53:54.682Z,99.90
2022-08-10T02:56:24.284Z,99.90
2022-08-10T02:58:55.124Z,99.90
2022-08-10T03:01:26.082Z,99.90
2022-08-10T03:04:01.417Z,99.90
2022-08-10T03:06:33.100Z,99.90
2022-08-10T03:09:00.659Z,99.90
2022-08-10T03:12:35.560Z,99.90
2022-08-10T03:14:16.588Z,99.90
2022-08-10T03:16:44.240Z,99.90
2022-08-10T03:20:34.989Z,99.90
2022-08-10T03:21:59.429Z,99.90
2022-08-10T03:24:30.354Z,99.90
2022-08-10T03:27:01.719Z,99.90
2022-08-10T03:29:29.396Z,99.90
2022-08-10T03:31:57.301Z,99.90
2022-08-10T03:34:33.270Z,99.90
2022-08-10T03:37:01.033Z,99.90
2022-08-10T03:39:28.453Z,99.90
2022-08-10T03:41:58.146Z,99.90
2022-08-10T03:44:26.484Z,99.90
2022-08-10T03:46:54.734Z,99.90
2022-08-10T03:49:22.639Z,99.90
2022-08-10T03:51:51.662Z,99.90
2022-08-10T03:54:19.537Z,99.90
2022-08-10T03:56:47.437Z,99.90
2022-08-10T03:59:15.752Z,99.90
2022-08-10T04:02:44.009Z,99.90
2022-08-10T04:04:31.112Z,99.90
2022-08-10T04:06:58.979Z,99.90
2022-08-10T04:09:53.619Z,99.90
2022-08-10T04:12:23.199Z,99.90
2022-08-10T04:14:52.858Z,99.90
2022-08-10T04:18:02.575Z,99.90
2022-08-10T04:20:13.540Z,99.90
2022-08-10T04:22:41.780Z,99.90
2022-08-10T04:25:10.274Z,99.90
2022-08-10T04:27:37.575Z,99.90
2022-08-10T04:30:05.036Z,99.90
2022-08-10T04:32:32.439Z,99.90
2022-08-10T04:34:59.759Z,99.90
2022-08-10T04:37:27.320Z,99.90
2022-08-10T04:39:54.886Z,99.90
2022-08-10T04:42:22.010Z,99.90
2022-08-10T04:44:50.368Z,99.90
2022-08-10T04:47:51.192Z,99.90
2022-08-10T04:50:05.153Z,99.90
2022-08-10T04:52:32.318Z,99.90
2022-08-10T04:54:59.516Z,99.90
2022-08-10T04:57:27.069Z,99.90
2022-08-10T04:59:54.307Z,99.90
2022-08-10T05:02:31.904Z,99.90
2022-08-10T05:04:59.634Z,99.90
2022-08-10T05:07:26.749Z,99.90
2022-08-10T05:10:04.066Z,99.90
2022-08-10T05:12:38.062Z,99.90
2022-08-10T05:15:06.640Z,99.90
2022-08-10T05:17:34.179Z,99.90
2022-08-10T05:20:05.679Z,99.90
2022-08-10T05:22:35.485Z,99.90
2022-08-10T05:25:02.941Z,99.90
2022-08-10T05:27:30.071Z,99.90
2022-08-10T05:30:02.105Z,99.90
2022-08-10T05:32:30.582Z,99.90
2022-08-10T05:34:58.083Z,99.90
2022-08-10T05:38:10.560Z,99.90
2022-08-10T05:40:13.147Z,99.90
2022-08-10T05:42:41.233Z,99.90
2022-08-10T05:45:14.546Z,99.90
2022-08-10T05:48:54.192Z,99.90
2022-08-10T05:50:31.315Z,99.90
2022-08-10T05:53:01.548Z,99.90
2022-08-10T05:55:46.029Z,99.90
2022-08-10T05:58:13.303Z,99.90
2022-08-10T06:00:49.957Z,99.90
2022-08-10T06:03:23.900Z,99.90
2022-08-10T06:05:52.626Z,99.90
2022-08-10T06:08:20.761Z,99.90
2022-08-10T06:12:21.726Z,99.90
2022-08-10T06:14:06.109Z,99.90
2022-08-10T06:16:42.389Z,99.90
2022-08-10T06:19:10.903Z,99.90
2022-08-10T06:22:00.464Z,99.90
2022-08-10T06:24:30.448Z,99.90
2022-08-10T06:26:58.672Z,99.90
2022-08-10T06:29:26.777Z,99.90
2022-08-10T06:31:54.483Z,99.90
2022-08-10T06:34:24.040Z,99.90
2022-08-10T06:36:53.293Z,99.90
2022-08-10T06:39:33.470Z,99.90
2022-08-10T06:42:16.370Z,99.90
2022-08-10T06:44:55.520Z,99.90
2022-08-10T06:47:24.942Z,99.90
2022-08-10T06:49:59.844Z,99.90
2022-08-10T06:52:28.965Z,99.90
2022-08-10T06:54:56.657Z,99.90
2022-08-10T06:57:25.137Z,99.90
2022-08-10T06:59:52.959Z,99.90
2022-08-10T07:02:26.381Z,99.90
2022-08-10T07:05:13.707Z,99.80
2022-08-10T07:07:42.231Z,99.50
2022-08-10T07:10:10.502Z,96.90
2022-08-10T07:12:38.767Z,96.80
2022-08-10T07:15:07.592Z,95.80
2022-08-10T07:17:39.519Z,96.70
2022-08-10T07:20:09.411Z,97.30
2022-08-10T07:23:50.752Z,97.70
2022-08-10T07:25:26.160Z,97.40
2022-08-10T07:28:00.836Z,97.60
2022-08-10T07:30:30.065Z,96.80
2022-08-10T07:32:57.357Z,97.10
2022-08-10T07:35:25.219Z,97.10
2022-08-10T07:37:53.032Z,95.80
2022-08-10T07:40:21.425Z,96.40
2022-08-10T07:42:51.327Z,95.80
2022-08-10T07:45:18.715Z,95.40
2022-08-10T07:48:11.846Z,95.20
2022-08-10T07:50:40.097Z,95.50
2022-08-10T07:53:27.409Z,95.20
2022-08-10T07:56:04.146Z,94.00
2022-08-10T07:58:51.477Z,94.60
2022-08-10T08:01:21.563Z,94.60
2022-08-10T08:04:10.785Z,94.90
2022-08-10T08:06:36.879Z,94.10
2022-08-10T08:09:06.151Z,94.50
2022-08-10T08:11:33.531Z,95.70
2022-08-10T08:14:02.332Z,93.80
2022-08-10T08:16:29.913Z,93.20
2022-08-10T08:24:05.290Z,92.00
2022-08-10T08:24:35.113Z,92.60
2022-08-10T08:27:03.221Z,92.00
2022-08-10T08:29:33.536Z,93.80
2022-08-10T08:32:02.710Z,92.60
2022-08-10T08:34:34.950Z,93.60
2022-08-10T08:37:02.461Z,92.80
2022-08-10T08:39:32.104Z,92.30
2022-08-10T08:42:04.419Z,91.70
2022-08-10T08:44:35.066Z,89.90
2022-08-10T08:48:02.968Z,89.50
2022-08-10T08:50:13.908Z,90.50
2022-08-10T08:52:41.027Z,90.80
2022-08-10T08:56:03.520Z,90.50
2022-08-10T08:58:17.311Z,90.20
2022-08-10T09:00:48.070Z,89.70
2022-08-10T09:03:28.450Z,87.90
2022-08-10T09:06:00.079Z,87.50
2022-08-10T09:08:37.911Z,84.90
2022-08-10T09:11:12.516Z,83.10
2022-08-10T09:13:54.797Z,84.00
2022-08-10T09:16:24.463Z,85.10
2022-08-10T09:18:56.364Z,83.00
2022-08-10T09:21:43.226Z,83.40
2022-08-10T09:24:30.679Z,87.40
2022-08-10T09:27:01.053Z,87.80
2022-08-10T09:29:30.082Z,88.60
2022-08-10T09:36:15.599Z,88.10
2022-08-10T09:36:21.066Z,89.70
2022-08-10T09:38:03.486Z,87.60
2022-08-10T09:40:59.993Z,90.60
2022-08-10T09:43:26.966Z,90.60
2022-08-10T09:46:03.140Z,89.90
2022-08-10T09:48:33.158Z,87.20
2022-08-10T09:54:07.901Z,87.40
2022-08-10T09:57:03.002Z,90.10
2022-08-10T10:00:01.768Z,89.80
2022-08-10T10:02:44.674Z,84.90
2022-08-10T10:05:18.101Z,82.90
2022-08-10T10:07:57.984Z,81.00
2022-08-10T10:10:29.182Z,79.00
2022-08-10T10:13:00.440Z,82.50
2022-08-10T10:15:51.147Z,82.30
2022-08-10T10:18:30.217Z,79.30
2022-08-10T10:21:07.693Z,78.20
2022-08-10T10:24:20.364Z,76.20
2022-08-10T10:26:44.137Z,77.20
2022-08-10T10:29:56.699Z,78.30
2022-08-10T10:32:19.174Z,81.40
2022-08-10T10:34:46.299Z,79.30
2022-08-10T10:37:13.962Z,78.90
2022-08-10T10:39:42.769Z,77.30
2022-08-10T10:42:44.681Z,79.80
2022-08-10T10:45:30.837Z,81.90
2022-08-10T10:48:06.767Z,83.30
2022-08-10T10:50:56.823Z,83.90
2022-08-10T10:53:44.547Z,81.60
2022-08-10T10:56:26.769Z,83.30
2022-08-10T10:59:53.759Z,85.00
2022-08-10T11:02:15.154Z,87.00
2022-08-10T11:05:05.372Z,89.00
2022-08-10T11:07:38.081Z,88.30
2022-08-10T11:10:31.927Z,87.20
2022-08-10T11:14:23.004Z,86.10
2022-08-10T11:15:54.125Z,86.90
2022-08-10T11:18:21.211Z,86.30
2022-08-10T11:21:07.171Z,87.90
2022-08-10T11:23:43.387Z,88.40
2022-08-10T11:26:28.643Z,86.40
2022-08-10T11:29:05.407Z,85.60
2022-08-10T11:31:43.647Z,88.50
2022-08-10T11:34:48.452Z,81.00
2022-08-10T11:37:23.526Z,80.60
2022-08-10T11:40:00.248Z,79.20
2022-08-10T11:42:47.573Z,78.20
2022-08-10T11:45:51.462Z,72.10
2022-08-10T11:48:53.392Z,73.20
2022-08-10T11:51:12.241Z,77.10
2022-08-10T11:53:53.938Z,78.00
2022-08-10T11:56:44.121Z,78.20
2022-08-10T11:59:30.268Z,82.80
2022-08-10T12:01:58.287Z,82.90
2022-08-10T12:04:27.391Z,83.90
2022-08-10T12:06:56.453Z,84.40
2022-08-10T12:10:11.306Z,85.40
2022-08-10T12:12:13.260Z,85.80
2022-08-10T12:14:55.699Z,85.80
2022-08-10T12:17:29.279Z,88.70
2022-08-10T12:20:03.439Z,88.10
2022-08-10T12:22:42.788Z,85.40
2022-08-10T12:25:11.797Z,85.40
2022-08-10T12:28:02.582Z,85.40
2022-08-10T12:30:34.603Z,84.90
2022-08-10T12:33:08.033Z,83.90
2022-08-10T12:36:01.816Z,79.80
2022-08-10T12:38:41.961Z,75.40
2022-08-10T12:41:43.375Z,74.10
2022-08-10T12:44:18.660Z,70.20
2022-08-10T12:47:14.260Z,64.70
2022-08-10T12:50:13.554Z,66.80
2022-08-10T12:52:42.599Z,62.20
2022-08-10T12:55:09.933Z,58.60
2022-08-10T12:57:38.001Z,60.20
2022-08-10T13:00:06.090Z,60.80
2022-08-10T13:02:48.812Z,57.10
2022-08-10T13:05:16.855Z,56.50
2022-08-10T13:08:24.432Z,55.80
2022-08-10T13:10:33.265Z,56.40
2022-08-10T13:13:01.544Z,53.80
2022-08-10T13:15:48.411Z,54.60
2022-08-10T13:18:19.691Z,54.30
2022-08-10T13:20:53.882Z,54.10
2022-08-10T13:23:25.376Z,54.50
2022-08-10T13:25:53.087Z,54.20
2022-08-10T13:28:37.620Z,53.60
2022-08-10T13:31:11.445Z,53.40
2022-08-10T13:34:41.523Z,55.50
2022-08-10T13:36:34.553Z,53.30
2022-08-10T13:39:02.195Z,52.90
2022-08-10T13:41:30.699Z,50.00
2022-08-10T13:43:59.170Z,51.00
2022-08-10T13:46:26.468Z,52.60
2022-08-10T13:48:54.438Z,49.70
2022-08-10T13:51:53.848Z,50.20
2022-08-10T13:54:14.280Z,50.10
2022-08-10T13:56:45.268Z,50.10
2022-08-10T13:59:16.257Z,50.90
2022-08-10T14:01:50.715Z,51.40
2022-08-10T14:04:19.022Z,50.30
2022-08-10T14:06:51.720Z,51.20
2022-08-10T14:09:23.846Z,49.10
2022-08-10T14:11:51.786Z,49.50
2022-08-10T14:14:19.627Z,47.50
2022-08-10T14:16:47.919Z,47.60
2022-08-10T14:19:16.778Z,49.00
2022-08-10T14:21:44.086Z,49.00
2022-08-10T14:24:28.190Z,48.20
2022-08-10T14:26:59.846Z,48.00
2022-08-10T14:29:28.791Z,49.00
2022-08-10T14:32:01.147Z,49.00
2022-08-10T14:36:16.160Z,47.90
2022-08-10T14:37:38.259Z,48.40
2022-08-10T14:40:08.711Z,46.00
2022-08-10T14:42:37.101Z,45.90
2022-08-10T14:45:33.503Z,47.00
2022-08-10T14:48:06.335Z,46.00
2022-08-10T14:50:35.369Z,47.30
2022-08-10T14:53:09.400Z,45.00
2022-08-10T14:55:57.530Z,45.70
2022-08-10T14:58:28.039Z,45.90
2022-08-10T15:00:56.128Z,44.70
2022-08-10T15:04:02.395Z,43.70
2022-08-10T15:06:17.078Z,44.70
2022-08-10T15:08:47.081Z,44.70
2022-08-10T15:12:14.270Z,45.90
2022-08-10T15:14:14.930Z,45.80
2022-08-10T15:16:52.951Z,44.10
2022-08-10T15:20:01.472Z,45.10
2022-08-10T15:22:35.451Z,44.90
2022-08-10T15:25:18.882Z,44.90
2022-08-10T15:27:54.772Z,43.70
2022-08-10T15:30:30.994Z,45.10
2022-08-10T15:33:21.367Z,45.10
2022-08-10T15:36:25.402Z,44.40
2022-08-10T15:38:58.419Z,44.70
2022-08-10T15:41:58.524Z,43.00
2022-08-10T15:44:47.069Z,43.30
2022-08-10T15:47:26.078Z,44.80
2022-08-10T15:50:03.009Z,42.60
2022-08-10T15:52:39.842Z,43.90
2022-08-10T15:55:46.783Z,45.20
2022-08-10T15:58:39.154Z,42.90
2022-08-10T16:02:13.691Z,43.80
2022-08-10T16:04:16.977Z,44.20
2022-08-10T16:06:48.283Z,43.00
2022-08-10T16:10:26.382Z,44.20
2022-08-10T16:12:10.839Z,46.20
2022-08-10T16:14:38.614Z,44.40
2022-08-10T16:17:09.848Z,45.20
2022-08-10T16:19:38.195Z,43.90
2022-08-10T16:22:36.550Z,44.20
2022-08-10T16:24:55.921Z,45.10
2022-08-10T16:27:26.515Z,44.90
2022-08-10T16:29:59.811Z,44.60
2022-08-10T16:32:27.760Z,43.80
2022-08-10T16:34:55.818Z,44.70
2022-08-10T16:37:23.353Z,45.30
2022-08-10T16:40:01.150Z,44.40
2022-08-10T16:42:31.496Z,44.90
2022-08-10T16:45:06.520Z,45.40
2022-08-10T16:47:36.498Z,46.70
2022-08-10T16:50:08.399Z,46.90
2022-08-10T16:52:36.272Z,46.10
2022-08-10T16:55:23.453Z,48.60
2022-08-10T16:57:52.926Z,49.30
2022-08-10T17:00:23.497Z,52.40
2022-08-10T17:02:55.395Z,54.10
2022-08-10T17:06:01.477Z,56.40
2022-08-10T17:08:15.374Z,57.10
2022-08-10T17:10:44.404Z,60.60
2022-08-10T17:13:12.285Z,61.10
2022-08-10T17:15:41.741Z,63.20
2022-08-10T17:18:11.616Z,64.10
2022-08-10T17:20:39.886Z,65.10
2022-08-10T17:23:09.606Z,66.90
2022-08-10T17:25:48.784Z,67.60
2022-08-10T17:28:32.897Z,67.60
2022-08-10T17:31:24.035Z,67.80
2022-08-10T17:34:13.701Z,67.40
2022-08-10T17:36:42.000Z,67.80
2022-08-10T17:39:11.531Z,67.30
2022-08-10T17:41:39.342Z,68.60
2022-08-10T17:44:06.876Z,69.40
2022-08-10T17:46:36.554Z,70.40
2022-08-10T17:49:06.356Z,70.80
2022-08-10T17:51:34.414Z,71.00
2022-08-10T17:54:04.730Z,71.40
2022-08-10T17:56:32.725Z,72.20
2022-08-10T17:59:01.173Z,72.20
2022-08-10T18:01:38.350Z,72.80
2022-08-10T18:04:13.533Z,72.00
2022-08-10T18:06:41.544Z,72.90
2022-08-10T18:09:18.043Z,73.40
2022-08-10T18:11:48.545Z,74.30
2022-08-10T18:14:16.725Z,75.00
2022-08-10T18:16:44.314Z,75.00
2022-08-10T18:19:13.281Z,75.60
2022-08-10T18:21:41.523Z,74.90
2022-08-10T18:24:16.352Z,76.20
2022-08-10T18:26:44.960Z,76.00
2022-08-10T18:29:18.651Z,76.70
2022-08-10T18:31:47.942Z,76.70
2022-08-10T18:34:20.258Z,77.40
2022-08-10T18:36:48.877Z,76.50
2022-08-10T18:39:20.555Z,75.30
2022-08-10T18:42:04.997Z,74.90
2022-08-10T18:44:37.046Z,73.90
2022-08-10T18:47:06.820Z,73.40
2022-08-10T18:49:41.434Z,75.80
2022-08-10T18:52:09.758Z,76.60
2022-08-10T18:54:48.006Z,77.60
2022-08-10T18:57:32.021Z,78.40
2022-08-10T19:00:12.204Z,78.00
2022-08-10T19:02:42.254Z,78.10
2022-08-10T19:05:30.680Z,78.40
2022-08-10T19:08:30.767Z,78.90
2022-08-10T19:11:04.714Z,79.10
2022-08-10T19:13:34.982Z,78.90
2022-08-10T19:16:15.166Z,80.10
2022-08-10T19:19:00.613Z,80.30
2022-08-10T19:21:31.051Z,81.40
2022-08-10T19:24:03.458Z,82.30
2022-08-10T19:26:44.181Z,83.70
2022-08-10T19:30:13.073Z,84.80
2022-08-10T19:32:38.254Z,85.30
2022-08-10T19:35:17.394Z,85.60
2022-08-10T19:38:00.141Z,85.70
2022-08-10T19:40:43.463Z,85.40
2022-08-10T19:43:13.546Z,86.40
2022-08-10T19:45:55.855Z,87.60
2022-08-10T19:48:29.976Z,88.00
2022-08-10T19:51:01.399Z,87.80
2022-08-10T19:53:48.859Z,88.70
2022-08-10T19:56:35.181Z,89.00
2022-08-10T20:00:15.740Z,90.00
2022-08-10T20:02:16.730Z,90.80
2022-08-10T20:04:53.142Z,91.00
2022-08-10T20:07:24.617Z,91.30
2022-08-10T20:10:00.377Z,91.50
2022-08-10T20:12:35.459Z,91.90
2022-08-10T20:15:31.786Z,91.80
2022-08-10T20:18:20.158Z,92.10
2022-08-10T20:21:03.719Z,92.50
2022-08-10T20:23:35.887Z,92.80
2022-08-10T20:26:08.758Z,92.90
2022-08-10T20:28:43.056Z,92.80
2022-08-10T20:31:17.668Z,93.60
2022-08-10T20:34:05.459Z,94.20
2022-08-10T20:36:32.893Z,94.40
2022-08-10T20:39:09.678Z,95.00
2022-08-10T20:41:58.278Z,95.40
2022-08-10T20:44:25.437Z,95.50
2022-08-10T20:47:11.039Z,95.50
2022-08-10T20:49:58.387Z,95.60
2022-08-10T20:52:26.048Z,96.30
2022-08-10T20:54:56.943Z,96.80
2022-08-10T20:57:56.860Z,97.20
2022-08-10T21:00:26.684Z,97.60
2022-08-10T21:02:59.807Z,98.20
2022-08-10T21:05:45.965Z,98.50
2022-08-10T21:08:14.010Z,98.60
2022-08-10T21:10:52.408Z,98.60
2022-08-10T21:13:44.391Z,98.70
2022-08-10T21:16:11.591Z,99.60
2022-08-10T21:18:45.832Z,99.80
2022-08-10T21:21:43.355Z,99.90
2022-08-10T21:24:15.448Z,99.90
2022-08-10T21:26:45.507Z,99.90
2022-08-10T21:29:37.912Z,99.90
2022-08-10T21:32:33.765Z,99.90
2022-08-10T21:35:00.762Z,99.90
2022-08-10T21:37:56.710Z,99.90
2022-08-10T21:40:34.494Z,99.90
2022-08-10T21:43:43.964Z,99.90
2022-08-10T21:46:39.386Z,99.90
2022-08-10T21:49:52.060Z,99.90
2022-08-10T21:52:43.532Z,99.90
2022-08-10T21:55:56.027Z,99.90
2022-08-10T21:59:00.511Z,99.90
2022-08-10T22:01:53.634Z,99.90
2022-08-10T22:04:40.085Z,99.90
2022-08-10T22:07:33.436Z,99.90
2022-08-10T22:10:21.935Z,99.90
2022-08-10T22:13:12.931Z,99.90
2022-08-10T22:16:10.554Z,99.90
2022-08-10T22:19:02.967Z,99.90
2022-08-10T22:21:49.014Z,99.90
2022-08-10T22:24:56.479Z,99.90
2022-08-10T22:27:46.979Z,99.90
2022-08-10T22:30:37.686Z,99.90
2022-08-10T22:33:41.971Z,99.90
2022-08-10T22:36:30.713Z,99.90
2022-08-10T22:40:10.082Z,99.90
2022-08-10T22:42:59.602Z,99.90
2022-08-10T22:45:51.365Z,99.90
2022-08-10T22:48:37.155Z,99.90
2022-08-10T22:51:30.354Z,99.90
2022-08-10T22:54:39.117Z,99.90
2022-08-10T22:57:25.063Z,99.90
2022-08-10T22:59:52.324Z,99.90
2022-08-10T23:02:22.448Z,99.90
2022-08-10T23:05:07.843Z,99.90
2022-08-10T23:07:37.113Z,99.90
2022-08-10T23:10:08.555Z,99.90
2022-08-10T23:12:35.898Z,99.90
2022-08-10T23:15:23.713Z,99.90
2022-08-10T23:18:12.244Z,99.90
2022-08-10T23:20:40.604Z,99.90
2022-08-10T23:23:10.257Z,99.90
2022-08-10T23:25:57.135Z,99.90
2022-08-10T23:28:38.870Z,99.90
2022-08-10T23:31:13.856Z,99.90
2022-08-10T23:33:41.744Z,99.90
2022-08-10T23:36:33.905Z,99.90
2022-08-10T23:39:26.415Z,99.90
2022-08-10T23:41:52.927Z,99.90
2022-08-10T23:44:22.951Z,99.90
2022-08-10T23:46:50.412Z,99.90
2022-08-10T23:49:19.072Z,99.90
2022-08-10T23:51:55.904Z,99.90
2022-08-10T23:54:24.450Z,99.90
2022-08-10T23:56:52.766Z,99.90
2022-08-10T23:59:22.617Z,99.90
